Mount Uniacke, Canada
Current Conditions -  °F | °C
As of 1:00 PM on Thursday 30 Oct 2014 (Local Time) from CYHZ Reporting Station
Broken Clouds Broken Clouds  
Wind Chill: 11°   Ceiling: 4600
Heat Index: 11°   Visibility: 15mi
Dew Point:   Wind: 7mph
Humidity: 71%   Direction: 270°W
Pressure: 29.79"   Gusts: NA
Location:  44.88°N, 63.83°W
Report Text: CYHZ 301600Z 27006KT 15SM FEW020 BKN046 BKN095 BKN250 11/06 A2979 RMK SC1SC4AC1CI1 SLP089
Loading
Personal Weather Stations






























Interactive Weather Map
Tropical Storm Tracking
New forecast layout! Learn more

10-Day Weather Forecast

Advertisements
Track Severe Weather on mobile